sensor_id;sensor_type;location;lat;lon;timestamp;P1;durP1;ratioP1;P2;durP2;ratioP2
85160;SDS011;75526;43.726;4.346;2024-03-22T00:01:44;7.00;;;3.67;;
85160;SDS011;75526;43.726;4.346;2024-03-22T00:04:10;6.93;;;3.25;;
85160;SDS011;75526;43.726;4.346;2024-03-22T00:06:37;7.93;;;3.40;;
85160;SDS011;75526;43.726;4.346;2024-03-22T00:09:03;6.57;;;3.15;;
85160;SDS011;75526;43.726;4.346;2024-03-22T00:11:29;6.30;;;3.20;;
85160;SDS011;75526;43.726;4.346;2024-03-22T00:13:55;7.00;;;3.60;;
85160;SDS011;75526;43.726;4.346;2024-03-22T00:16:21;6.30;;;3.08;;
85160;SDS011;75526;43.726;4.346;2024-03-22T00:18:47;7.70;;;3.40;;
85160;SDS011;75526;43.726;4.346;2024-03-22T00:21:13;6.72;;;3.15;;
85160;SDS011;75526;43.726;4.346;2024-03-22T00:23:39;6.07;;;3.30;;
85160;SDS011;75526;43.726;4.346;2024-03-22T00:26:05;5.37;;;3.03;;
85160;SDS011;75526;43.726;4.346;2024-03-22T00:28:31;7.65;;;3.10;;
85160;SDS011;75526;43.726;4.346;2024-03-22T00:30:58;6.10;;;3.33;;
85160;SDS011;75526;43.726;4.346;2024-03-22T00:33:24;5.63;;;3.35;;
85160;SDS011;75526;43.726;4.346;2024-03-22T00:35:50;6.13;;;3.25;;
85160;SDS011;75526;43.726;4.346;2024-03-22T00:38:16;5.20;;;2.90;;
85160;SDS011;75526;43.726;4.346;2024-03-22T00:40:42;7.28;;;3.03;;
85160;SDS011;75526;43.726;4.346;2024-03-22T00:43:08;6.10;;;3.00;;
85160;SDS011;75526;43.726;4.346;2024-03-22T00:45:34;5.57;;;3.00;;
85160;SDS011;75526;43.726;4.346;2024-03-22T00:48:00;4.82;;;2.80;;
85160;SDS011;75526;43.726;4.346;2024-03-22T00:50:26;7.37;;;3.13;;
85160;SDS011;75526;43.726;4.346;2024-03-22T00:52:52;6.05;;;2.85;;
85160;SDS011;75526;43.726;4.346;2024-03-22T00:55:20;6.78;;;2.80;;
85160;SDS011;75526;43.726;4.346;2024-03-22T00:57:46;6.60;;;3.00;;
85160;SDS011;75526;43.726;4.346;2024-03-22T01:00:12;6.72;;;2.90;;
85160;SDS011;75526;43.726;4.346;2024-03-22T01:02:39;5.73;;;3.00;;
85160;SDS011;75526;43.726;4.346;2024-03-22T01:05:05;4.95;;;2.80;;
85160;SDS011;75526;43.726;4.346;2024-03-22T01:07:31;5.10;;;2.83;;
85160;SDS011;75526;43.726;4.346;2024-03-22T01:09:57;6.22;;;2.97;;
85160;SDS011;75526;43.726;4.346;2024-03-22T01:12:23;6.95;;;2.92;;
85160;SDS011;75526;43.726;4.346;2024-03-22T01:14:49;5.40;;;2.73;;
85160;SDS011;75526;43.726;4.346;2024-03-22T01:17:15;6.20;;;3.10;;
85160;SDS011;75526;43.726;4.346;2024-03-22T01:19:41;8.07;;;3.08;;
85160;SDS011;75526;43.726;4.346;2024-03-22T01:22:07;6.13;;;2.90;;
85160;SDS011;75526;43.726;4.346;2024-03-22T01:24:33;5.30;;;2.85;;
85160;SDS011;75526;43.726;4.346;2024-03-22T01:26:59;6.73;;;3.00;;
85160;SDS011;75526;43.726;4.346;2024-03-22T01:29:25;5.70;;;3.00;;
85160;SDS011;75526;43.726;4.346;2024-03-22T01:31:55;8.15;;;3.08;;
85160;SDS011;75526;43.726;4.346;2024-03-22T01:34:21;5.30;;;2.92;;
85160;SDS011;75526;43.726;4.346;2024-03-22T01:36:47;5.20;;;2.80;;
85160;SDS011;75526;43.726;4.346;2024-03-22T01:39:13;5.20;;;2.70;;
85160;SDS011;75526;43.726;4.346;2024-03-22T01:41:40;5.05;;;2.67;;
85160;SDS011;75526;43.726;4.346;2024-03-22T01:44:07;7.18;;;3.13;;
85160;SDS011;75526;43.726;4.346;2024-03-22T01:46:33;7.15;;;2.90;;
85160;SDS011;75526;43.726;4.346;2024-03-22T01:48:59;6.30;;;2.75;;
85160;SDS011;75526;43.726;4.346;2024-03-22T01:51:25;5.80;;;2.93;;
85160;SDS011;75526;43.726;4.346;2024-03-22T01:53:51;5.40;;;2.70;;
85160;SDS011;75526;43.726;4.346;2024-03-22T01:56:18;5.28;;;2.80;;
85160;SDS011;75526;43.726;4.346;2024-03-22T01:58:45;5.13;;;2.80;;
85160;SDS011;75526;43.726;4.346;2024-03-22T02:01:11;6.35;;;2.85;;
85160;SDS011;75526;43.726;4.346;2024-03-22T02:03:37;5.23;;;2.67;;
85160;SDS011;75526;43.726;4.346;2024-03-22T02:06:03;6.82;;;3.00;;
85160;SDS011;75526;43.726;4.346;2024-03-22T02:08:30;4.57;;;2.60;;
85160;SDS011;75526;43.726;4.346;2024-03-22T02:10:56;6.78;;;2.60;;
85160;SDS011;75526;43.726;4.346;2024-03-22T02:13:22;5.78;;;2.60;;
85160;SDS011;75526;43.726;4.346;2024-03-22T02:15:48;6.63;;;2.90;;
85160;SDS011;75526;43.726;4.346;2024-03-22T02:18:14;5.95;;;2.60;;
85160;SDS011;75526;43.726;4.346;2024-03-22T02:20:40;5.32;;;2.60;;
85160;SDS011;75526;43.726;4.346;2024-03-22T02:23:06;4.93;;;2.42;;
85160;SDS011;75526;43.726;4.346;2024-03-22T02:25:32;4.60;;;2.40;;
85160;SDS011;75526;43.726;4.346;2024-03-22T02:27:58;5.67;;;2.77;;
85160;SDS011;75526;43.726;4.346;2024-03-22T02:30:24;5.22;;;2.60;;
85160;SDS011;75526;43.726;4.346;2024-03-22T02:32:50;5.47;;;2.30;;
85160;SDS011;75526;43.726;4.346;2024-03-22T02:35:16;5.05;;;2.60;;
85160;SDS011;75526;43.726;4.346;2024-03-22T02:37:42;5.18;;;2.60;;
85160;SDS011;75526;43.726;4.346;2024-03-22T02:40:08;5.47;;;2.50;;
85160;SDS011;75526;43.726;4.346;2024-03-22T02:42:34;6.25;;;2.58;;
85160;SDS011;75526;43.726;4.346;2024-03-22T02:45:00;6.15;;;2.50;;
85160;SDS011;75526;43.726;4.346;2024-03-22T02:47:26;6.13;;;2.65;;
85160;SDS011;75526;43.726;4.346;2024-03-22T02:49:52;5.75;;;2.75;;
85160;SDS011;75526;43.726;4.346;2024-03-22T02:52:18;5.60;;;2.40;;
85160;SDS011;75526;43.726;4.346;2024-03-22T02:54:44;4.38;;;2.72;;
85160;SDS011;75526;43.726;4.346;2024-03-22T02:57:11;5.43;;;2.50;;
85160;SDS011;75526;43.726;4.346;2024-03-22T02:59:37;4.97;;;2.40;;
85160;SDS011;75526;43.726;4.346;2024-03-22T03:02:03;4.82;;;2.50;;
85160;SDS011;75526;43.726;4.346;2024-03-22T03:04:29;5.47;;;2.43;;
85160;SDS011;75526;43.726;4.346;2024-03-22T03:06:55;4.65;;;2.33;;
85160;SDS011;75526;43.726;4.346;2024-03-22T03:09:21;5.57;;;2.60;;
85160;SDS011;75526;43.726;4.346;2024-03-22T03:11:47;4.65;;;2.60;;
85160;SDS011;75526;43.726;4.346;2024-03-22T03:14:13;5.95;;;2.60;;
85160;SDS011;75526;43.726;4.346;2024-03-22T03:16:39;4.87;;;2.50;;
85160;SDS011;75526;43.726;4.346;2024-03-22T03:19:05;5.25;;;2.67;;
85160;SDS011;75526;43.726;4.346;2024-03-22T03:21:31;5.03;;;2.20;;
85160;SDS011;75526;43.726;4.346;2024-03-22T03:23:57;4.82;;;2.50;;
85160;SDS011;75526;43.726;4.346;2024-03-22T03:26:23;5.57;;;2.60;;
85160;SDS011;75526;43.726;4.346;2024-03-22T03:28:49;5.30;;;2.40;;
85160;SDS011;75526;43.726;4.346;2024-03-22T03:31:15;5.13;;;2.42;;
85160;SDS011;75526;43.726;4.346;2024-03-22T03:33:41;5.32;;;2.40;;
85160;SDS011;75526;43.726;4.346;2024-03-22T03:36:07;4.57;;;2.50;;
85160;SDS011;75526;43.726;4.346;2024-03-22T03:38:33;5.05;;;2.40;;
85160;SDS011;75526;43.726;4.346;2024-03-22T03:41:02;7.23;;;2.67;;
85160;SDS011;75526;43.726;4.346;2024-03-22T03:43:28;5.65;;;2.50;;
85160;SDS011;75526;43.726;4.346;2024-03-22T03:45:55;3.80;;;2.20;;
85160;SDS011;75526;43.726;4.346;2024-03-22T03:48:21;5.07;;;2.50;;
85160;SDS011;75526;43.726;4.346;2024-03-22T03:50:53;4.63;;;2.33;;
85160;SDS011;75526;43.726;4.346;2024-03-22T03:53:20;5.67;;;2.30;;
85160;SDS011;75526;43.726;4.346;2024-03-22T03:55:46;4.22;;;2.30;;
85160;SDS011;75526;43.726;4.346;2024-03-22T03:58:12;5.28;;;2.40;;
85160;SDS011;75526;43.726;4.346;2024-03-22T04:00:38;4.32;;;2.30;;
85160;SDS011;75526;43.726;4.346;2024-03-22T04:03:04;4.65;;;2.08;;
85160;SDS011;75526;43.726;4.346;2024-03-22T04:05:30;3.50;;;2.07;;
85160;SDS011;75526;43.726;4.346;2024-03-22T04:07:56;5.22;;;2.40;;
85160;SDS011;75526;43.726;4.346;2024-03-22T04:10:22;6.78;;;2.20;;
85160;SDS011;75526;43.726;4.346;2024-03-22T04:12:48;4.80;;;2.30;;
85160;SDS011;75526;43.726;4.346;2024-03-22T04:15:14;6.47;;;2.38;;
85160;SDS011;75526;43.726;4.346;2024-03-22T04:17:40;5.10;;;2.10;;
85160;SDS011;75526;43.726;4.346;2024-03-22T04:20:07;5.72;;;2.00;;
85160;SDS011;75526;43.726;4.346;2024-03-22T04:22:34;5.22;;;2.13;;
85160;SDS011;75526;43.726;4.346;2024-03-22T04:25:00;3.38;;;1.90;;
85160;SDS011;75526;43.726;4.346;2024-03-22T04:27:26;5.07;;;2.10;;
85160;SDS011;75526;43.726;4.346;2024-03-22T04:29:52;4.43;;;2.10;;
85160;SDS011;75526;43.726;4.346;2024-03-22T04:32:18;3.88;;;2.00;;
85160;SDS011;75526;43.726;4.346;2024-03-22T04:34:44;4.22;;;2.10;;
85160;SDS011;75526;43.726;4.346;2024-03-22T04:37:10;3.85;;;2.15;;
85160;SDS011;75526;43.726;4.346;2024-03-22T04:39:37;3.63;;;2.00;;
85160;SDS011;75526;43.726;4.346;2024-03-22T04:42:03;3.70;;;2.20;;
85160;SDS011;75526;43.726;4.346;2024-03-22T04:44:30;3.85;;;2.10;;
85160;SDS011;75526;43.726;4.346;2024-03-22T04:46:56;4.38;;;2.10;;
85160;SDS011;75526;43.726;4.346;2024-03-22T04:49:22;5.03;;;2.00;;
85160;SDS011;75526;43.726;4.346;2024-03-22T04:51:48;6.45;;;2.10;;
85160;SDS011;75526;43.726;4.346;2024-03-22T04:54:14;4.97;;;1.90;;
85160;SDS011;75526;43.726;4.346;2024-03-22T04:56:40;4.97;;;1.98;;
85160;SDS011;75526;43.726;4.346;2024-03-22T04:59:06;4.47;;;2.15;;
85160;SDS011;75526;43.726;4.346;2024-03-22T05:01:32;5.68;;;1.75;;
85160;SDS011;75526;43.726;4.346;2024-03-22T05:03:58;3.55;;;1.92;;
85160;SDS011;75526;43.726;4.346;2024-03-22T05:06:24;4.80;;;1.90;;
85160;SDS011;75526;43.726;4.346;2024-03-22T05:08:50;4.60;;;1.80;;
85160;SDS011;75526;43.726;4.346;2024-03-22T05:11:16;4.40;;;1.77;;
85160;SDS011;75526;43.726;4.346;2024-03-22T05:13:42;6.20;;;1.63;;
85160;SDS011;75526;43.726;4.346;2024-03-22T05:16:08;3.60;;;1.80;;
85160;SDS011;75526;43.726;4.346;2024-03-22T05:18:36;3.30;;;1.77;;
85160;SDS011;75526;43.726;4.346;2024-03-22T05:21:02;4.05;;;1.80;;
85160;SDS011;75526;43.726;4.346;2024-03-22T05:23:28;6.22;;;1.85;;
85160;SDS011;75526;43.726;4.346;2024-03-22T05:25:54;4.45;;;1.77;;
85160;SDS011;75526;43.726;4.346;2024-03-22T05:28:20;3.33;;;1.90;;
85160;SDS011;75526;43.726;4.346;2024-03-22T05:30:46;4.23;;;2.10;;
85160;SDS011;75526;43.726;4.346;2024-03-22T05:33:12;3.42;;;1.80;;
85160;SDS011;75526;43.726;4.346;2024-03-22T05:35:39;3.90;;;2.00;;
85160;SDS011;75526;43.726;4.346;2024-03-22T05:38:06;4.15;;;2.00;;
85160;SDS011;75526;43.726;4.346;2024-03-22T05:40:32;4.68;;;1.70;;
85160;SDS011;75526;43.726;4.346;2024-03-22T05:42:58;3.57;;;1.90;;
85160;SDS011;75526;43.726;4.346;2024-03-22T05:45:24;4.03;;;1.80;;
85160;SDS011;75526;43.726;4.346;2024-03-22T05:47:50;4.05;;;1.75;;
85160;SDS011;75526;43.726;4.346;2024-03-22T05:50:17;4.05;;;1.63;;
85160;SDS011;75526;43.726;4.346;2024-03-22T05:52:43;4.65;;;1.92;;
85160;SDS011;75526;43.726;4.346;2024-03-22T05:55:09;4.10;;;1.80;;
85160;SDS011;75526;43.726;4.346;2024-03-22T05:57:35;6.18;;;1.77;;
85160;SDS011;75526;43.726;4.346;2024-03-22T06:00:01;4.00;;;2.00;;
85160;SDS011;75526;43.726;4.346;2024-03-22T06:02:27;5.13;;;2.20;;
85160;SDS011;75526;43.726;4.346;2024-03-22T06:04:53;4.10;;;1.77;;
85160;SDS011;75526;43.726;4.346;2024-03-22T06:07:19;4.60;;;1.80;;
85160;SDS011;75526;43.726;4.346;2024-03-22T06:09:45;5.15;;;2.13;;
85160;SDS011;75526;43.726;4.346;2024-03-22T06:12:20;5.50;;;2.00;;
85160;SDS011;75526;43.726;4.346;2024-03-22T06:14:47;3.78;;;1.90;;
85160;SDS011;75526;43.726;4.346;2024-03-22T06:17:13;5.60;;;2.17;;
85160;SDS011;75526;43.726;4.346;2024-03-22T06:19:40;3.97;;;2.10;;
85160;SDS011;75526;43.726;4.346;2024-03-22T06:22:06;3.67;;;2.10;;
85160;SDS011;75526;43.726;4.346;2024-03-22T06:24:32;5.72;;;2.60;;
85160;SDS011;75526;43.726;4.346;2024-03-22T06:26:58;5.68;;;2.30;;
85160;SDS011;75526;43.726;4.346;2024-03-22T06:29:25;5.28;;;2.33;;
85160;SDS011;75526;43.726;4.346;2024-03-22T06:31:51;4.77;;;2.10;;
85160;SDS011;75526;43.726;4.346;2024-03-22T06:34:17;5.05;;;2.35;;
85160;SDS011;75526;43.726;4.346;2024-03-22T06:36:43;4.32;;;2.00;;
85160;SDS011;75526;43.726;4.346;2024-03-22T06:39:09;3.95;;;2.00;;
85160;SDS011;75526;43.726;4.346;2024-03-22T06:41:35;3.28;;;1.95;;
85160;SDS011;75526;43.726;4.346;2024-03-22T06:44:02;6.60;;;2.10;;
85160;SDS011;75526;43.726;4.346;2024-03-22T06:46:28;4.95;;;2.00;;
85160;SDS011;75526;43.726;4.346;2024-03-22T06:48:54;5.00;;;2.10;;
85160;SDS011;75526;43.726;4.346;2024-03-22T06:51:20;3.90;;;2.20;;
85160;SDS011;75526;43.726;4.346;2024-03-22T06:53:46;6.07;;;2.45;;
85160;SDS011;75526;43.726;4.346;2024-03-22T06:56:13;5.13;;;2.13;;
85160;SDS011;75526;43.726;4.346;2024-03-22T06:58:39;5.55;;;2.35;;
85160;SDS011;75526;43.726;4.346;2024-03-22T07:01:05;5.97;;;2.30;;
85160;SDS011;75526;43.726;4.346;2024-03-22T07:03:31;6.28;;;2.28;;
85160;SDS011;75526;43.726;4.346;2024-03-22T07:05:58;6.18;;;2.28;;
85160;SDS011;75526;43.726;4.346;2024-03-22T07:08:24;4.20;;;2.40;;
85160;SDS011;75526;43.726;4.346;2024-03-22T07:10:50;5.25;;;2.42;;
85160;SDS011;75526;43.726;4.346;2024-03-22T07:13:19;5.93;;;2.17;;
85160;SDS011;75526;43.726;4.346;2024-03-22T07:15:45;4.93;;;2.25;;
85160;SDS011;75526;43.726;4.346;2024-03-22T07:18:12;4.40;;;2.30;;
85160;SDS011;75526;43.726;4.346;2024-03-22T07:20:39;4.40;;;2.30;;
85160;SDS011;75526;43.726;4.346;2024-03-22T07:23:05;5.30;;;2.50;;
85160;SDS011;75526;43.726;4.346;2024-03-22T07:25:31;4.97;;;2.50;;
85160;SDS011;75526;43.726;4.346;2024-03-22T07:27:57;7.30;;;2.50;;
85160;SDS011;75526;43.726;4.346;2024-03-22T07:30:24;4.82;;;2.80;;
85160;SDS011;75526;43.726;4.346;2024-03-22T07:32:50;6.50;;;2.50;;
85160;SDS011;75526;43.726;4.346;2024-03-22T07:35:16;5.88;;;3.00;;
85160;SDS011;75526;43.726;4.346;2024-03-22T07:37:42;4.60;;;2.53;;
85160;SDS011;75526;43.726;4.346;2024-03-22T07:40:08;8.25;;;2.78;;
85160;SDS011;75526;43.726;4.346;2024-03-22T07:42:34;6.40;;;2.65;;
85160;SDS011;75526;43.726;4.346;2024-03-22T07:45:00;4.97;;;2.47;;
85160;SDS011;75526;43.726;4.346;2024-03-22T07:47:27;4.93;;;2.63;;
85160;SDS011;75526;43.726;4.346;2024-03-22T07:49:53;6.22;;;2.72;;
85160;SDS011;75526;43.726;4.346;2024-03-22T07:52:19;6.07;;;2.53;;
85160;SDS011;75526;43.726;4.346;2024-03-22T07:54:46;4.68;;;2.60;;
85160;SDS011;75526;43.726;4.346;2024-03-22T07:57:12;6.00;;;2.70;;
85160;SDS011;75526;43.726;4.346;2024-03-22T07:59:38;6.05;;;2.72;;
85160;SDS011;75526;43.726;4.346;2024-03-22T08:02:04;8.77;;;3.20;;
85160;SDS011;75526;43.726;4.346;2024-03-22T08:04:30;8.70;;;3.47;;
85160;SDS011;75526;43.726;4.346;2024-03-22T08:06:56;8.75;;;3.47;;
85160;SDS011;75526;43.726;4.346;2024-03-22T08:09:22;10.07;;;4.23;;
85160;SDS011;75526;43.726;4.346;2024-03-22T08:11:48;6.85;;;3.20;;
85160;SDS011;75526;43.726;4.346;2024-03-22T08:14:14;6.93;;;2.90;;
85160;SDS011;75526;43.726;4.346;2024-03-22T08:16:41;8.18;;;2.78;;
85160;SDS011;75526;43.726;4.346;2024-03-22T08:19:08;7.30;;;2.60;;
85160;SDS011;75526;43.726;4.346;2024-03-22T08:21:34;4.60;;;2.53;;
85160;SDS011;75526;43.726;4.346;2024-03-22T08:24:01;6.38;;;2.40;;
85160;SDS011;75526;43.726;4.346;2024-03-22T08:26:29;9.38;;;2.65;;
85160;SDS011;75526;43.726;4.346;2024-03-22T08:28:55;7.05;;;2.90;;
85160;SDS011;75526;43.726;4.346;2024-03-22T08:31:21;6.75;;;2.40;;
85160;SDS011;75526;43.726;4.346;2024-03-22T08:33:50;7.33;;;2.30;;
85160;SDS011;75526;43.726;4.346;2024-03-22T08:36:16;5.60;;;1.98;;
85160;SDS011;75526;43.726;4.346;2024-03-22T08:38:42;4.70;;;2.10;;
85160;SDS011;75526;43.726;4.346;2024-03-22T08:41:08;5.55;;;2.00;;
85160;SDS011;75526;43.726;4.346;2024-03-22T08:43:34;4.43;;;2.10;;
85160;SDS011;75526;43.726;4.346;2024-03-22T08:46:00;3.47;;;2.00;;
85160;SDS011;75526;43.726;4.346;2024-03-22T08:48:26;5.32;;;2.03;;
85160;SDS011;75526;43.726;4.346;2024-03-22T08:50:52;3.50;;;2.10;;
85160;SDS011;75526;43.726;4.346;2024-03-22T08:53:18;4.72;;;2.08;;
85160;SDS011;75526;43.726;4.346;2024-03-22T08:55:45;4.55;;;2.05;;
85160;SDS011;75526;43.726;4.346;2024-03-22T08:58:12;4.27;;;1.80;;
85160;SDS011;75526;43.726;4.346;2024-03-22T09:00:38;4.60;;;2.08;;
85160;SDS011;75526;43.726;4.346;2024-03-22T09:03:04;4.43;;;2.13;;
85160;SDS011;75526;43.726;4.346;2024-03-22T09:05:30;5.05;;;1.90;;
85160;SDS011;75526;43.726;4.346;2024-03-22T09:07:58;4.22;;;2.00;;
85160;SDS011;75526;43.726;4.346;2024-03-22T09:10:24;4.73;;;1.90;;
85160;SDS011;75526;43.726;4.346;2024-03-22T09:12:51;4.20;;;2.20;;
85160;SDS011;75526;43.726;4.346;2024-03-22T09:15:17;3.42;;;1.92;;
85160;SDS011;75526;43.726;4.346;2024-03-22T09:17:43;4.07;;;2.08;;
85160;SDS011;75526;43.726;4.346;2024-03-22T09:20:09;3.55;;;2.00;;
85160;SDS011;75526;43.726;4.346;2024-03-22T09:22:35;5.00;;;1.90;;
85160;SDS011;75526;43.726;4.346;2024-03-22T09:25:03;4.32;;;1.92;;
85160;SDS011;75526;43.726;4.346;2024-03-22T09:27:30;4.43;;;2.20;;
85160;SDS011;75526;43.726;4.346;2024-03-22T09:29:56;4.25;;;2.00;;
85160;SDS011;75526;43.726;4.346;2024-03-22T09:32:22;4.72;;;1.95;;
85160;SDS011;75526;43.726;4.346;2024-03-22T09:34:48;2.80;;;1.80;;
85160;SDS011;75526;43.726;4.346;2024-03-22T09:37:17;4.13;;;1.88;;
85160;SDS011;75526;43.726;4.346;2024-03-22T09:39:43;4.13;;;2.00;;
85160;SDS011;75526;43.726;4.346;2024-03-22T09:42:18;3.92;;;1.98;;
85160;SDS011;75526;43.726;4.346;2024-03-22T09:44:47;4.93;;;2.22;;
85160;SDS011;75526;43.726;4.346;2024-03-22T09:47:16;4.57;;;2.00;;
85160;SDS011;75526;43.726;4.346;2024-03-22T09:49:43;5.00;;;2.30;;
85160;SDS011;75526;43.726;4.346;2024-03-22T09:52:13;5.75;;;2.15;;
85160;SDS011;75526;43.726;4.346;2024-03-22T09:54:42;7.43;;;2.20;;
85160;SDS011;75526;43.726;4.346;2024-03-22T09:57:13;4.82;;;2.08;;
85160;SDS011;75526;43.726;4.346;2024-03-22T09:59:42;4.97;;;2.20;;
85160;SDS011;75526;43.726;4.346;2024-03-22T10:02:10;5.28;;;2.70;;
85160;SDS011;75526;43.726;4.346;2024-03-22T10:04:37;6.65;;;2.70;;
85160;SDS011;75526;43.726;4.346;2024-03-22T10:07:03;5.03;;;1.80;;
85160;SDS011;75526;43.726;4.346;2024-03-22T10:09:30;3.45;;;1.73;;
85160;SDS011;75526;43.726;4.346;2024-03-22T10:11:57;3.60;;;1.90;;
85160;SDS011;75526;43.726;4.346;2024-03-22T10:14:23;4.57;;;2.00;;
85160;SDS011;75526;43.726;4.346;2024-03-22T10:16:53;5.63;;;2.10;;
85160;SDS011;75526;43.726;4.346;2024-03-22T10:19:22;5.93;;;2.97;;
85160;SDS011;75526;43.726;4.346;2024-03-22T10:24:27;4.80;;;2.30;;
85160;SDS011;75526;43.726;4.346;2024-03-22T10:26:53;4.85;;;2.35;;
85160;SDS011;75526;43.726;4.346;2024-03-22T10:29:19;3.17;;;2.08;;
85160;SDS011;75526;43.726;4.346;2024-03-22T10:31:47;4.45;;;2.00;;
85160;SDS011;75526;43.726;4.346;2024-03-22T10:34:13;4.00;;;1.98;;
85160;SDS011;75526;43.726;4.346;2024-03-22T10:36:40;5.80;;;2.20;;
85160;SDS011;75526;43.726;4.346;2024-03-22T10:39:06;4.35;;;2.20;;
85160;SDS011;75526;43.726;4.346;2024-03-22T10:41:33;4.72;;;2.30;;
85160;SDS011;75526;43.726;4.346;2024-03-22T10:43:59;3.03;;;1.80;;
85160;SDS011;75526;43.726;4.346;2024-03-22T10:46:29;4.65;;;1.80;;
85160;SDS011;75526;43.726;4.346;2024-03-22T10:48:55;4.90;;;1.97;;
85160;SDS011;75526;43.726;4.346;2024-03-22T10:51:23;5.45;;;2.00;;
85160;SDS011;75526;43.726;4.346;2024-03-22T10:53:50;4.43;;;2.20;;
85160;SDS011;75526;43.726;4.346;2024-03-22T10:56:17;5.30;;;2.13;;
85160;SDS011;75526;43.726;4.346;2024-03-22T10:58:43;4.55;;;2.08;;
85160;SDS011;75526;43.726;4.346;2024-03-22T11:01:23;5.03;;;2.40;;
85160;SDS011;75526;43.726;4.346;2024-03-22T11:03:49;4.93;;;2.25;;
85160;SDS011;75526;43.726;4.346;2024-03-22T11:06:21;4.20;;;2.10;;
85160;SDS011;75526;43.726;4.346;2024-03-22T11:08:51;4.38;;;2.10;;
85160;SDS011;75526;43.726;4.346;2024-03-22T11:11:18;6.40;;;2.10;;
85160;SDS011;75526;43.726;4.346;2024-03-22T11:13:46;4.30;;;2.10;;
85160;SDS011;75526;43.726;4.346;2024-03-22T11:16:12;3.70;;;2.03;;
85160;SDS011;75526;43.726;4.346;2024-03-22T11:18:39;3.70;;;1.90;;
85160;SDS011;75526;43.726;4.346;2024-03-22T11:21:05;5.18;;;2.25;;
85160;SDS011;75526;43.726;4.346;2024-03-22T11:23:34;4.93;;;2.15;;
85160;SDS011;75526;43.726;4.346;2024-03-22T11:26:01;6.00;;;2.10;;
85160;SDS011;75526;43.726;4.346;2024-03-22T11:28:27;4.88;;;1.85;;
85160;SDS011;75526;43.726;4.346;2024-03-22T11:30:53;4.28;;;1.90;;
85160;SDS011;75526;43.726;4.346;2024-03-22T11:33:19;4.47;;;1.83;;
85160;SDS011;75526;43.726;4.346;2024-03-22T11:35:45;4.13;;;2.10;;
85160;SDS011;75526;43.726;4.346;2024-03-22T11:38:11;5.33;;;2.03;;
85160;SDS011;75526;43.726;4.346;2024-03-22T11:40:37;3.38;;;1.92;;
85160;SDS011;75526;43.726;4.346;2024-03-22T11:43:03;4.65;;;2.03;;
85160;SDS011;75526;43.726;4.346;2024-03-22T11:45:30;3.40;;;1.70;;
85160;SDS011;75526;43.726;4.346;2024-03-22T11:48:02;5.30;;;2.00;;
85160;SDS011;75526;43.726;4.346;2024-03-22T11:50:29;6.37;;;2.33;;
85160;SDS011;75526;43.726;4.346;2024-03-22T11:52:55;5.50;;;2.10;;
85160;SDS011;75526;43.726;4.346;2024-03-22T11:55:21;5.88;;;2.30;;
85160;SDS011;75526;43.726;4.346;2024-03-22T11:57:50;5.18;;;2.60;;
85160;SDS011;75526;43.726;4.346;2024-03-22T12:00:18;6.07;;;2.13;;
85160;SDS011;75526;43.726;4.346;2024-03-22T12:02:44;6.70;;;2.50;;
85160;SDS011;75526;43.726;4.346;2024-03-22T12:05:11;5.25;;;2.50;;
85160;SDS011;75526;43.726;4.346;2024-03-22T12:07:37;5.47;;;2.42;;
85160;SDS011;75526;43.726;4.346;2024-03-22T12:10:03;3.65;;;2.10;;
85160;SDS011;75526;43.726;4.346;2024-03-22T12:12:30;6.25;;;2.58;;
85160;SDS011;75526;43.726;4.346;2024-03-22T12:14:56;5.97;;;2.50;;
85160;SDS011;75526;43.726;4.346;2024-03-22T12:17:22;4.97;;;2.38;;
85160;SDS011;75526;43.726;4.346;2024-03-22T12:19:48;6.60;;;3.25;;
85160;SDS011;75526;43.726;4.346;2024-03-22T12:22:14;7.65;;;3.00;;
85160;SDS011;75526;43.726;4.346;2024-03-22T12:24:40;5.55;;;3.00;;
85160;SDS011;75526;43.726;4.346;2024-03-22T12:27:07;8.93;;;3.17;;
85160;SDS011;75526;43.726;4.346;2024-03-22T12:29:33;6.70;;;3.20;;
85160;SDS011;75526;43.726;4.346;2024-03-22T12:31:59;9.65;;;3.40;;
85160;SDS011;75526;43.726;4.346;2024-03-22T12:34:31;9.48;;;3.90;;
85160;SDS011;75526;43.726;4.346;2024-03-22T12:36:58;8.68;;;3.75;;
85160;SDS011;75526;43.726;4.346;2024-03-22T12:39:24;7.97;;;3.30;;
85160;SDS011;75526;43.726;4.346;2024-03-22T12:41:50;6.82;;;3.15;;
85160;SDS011;75526;43.726;4.346;2024-03-22T12:44:16;9.70;;;3.88;;
85160;SDS011;75526;43.726;4.346;2024-03-22T12:46:43;7.10;;;4.05;;
85160;SDS011;75526;43.726;4.346;2024-03-22T12:49:10;10.07;;;4.70;;
85160;SDS011;75526;43.726;4.346;2024-03-22T12:51:36;7.63;;;4.20;;
85160;SDS011;75526;43.726;4.346;2024-03-22T12:54:02;8.40;;;4.43;;
85160;SDS011;75526;43.726;4.346;2024-03-22T12:56:29;9.38;;;4.50;;
85160;SDS011;75526;43.726;4.346;2024-03-22T12:58:56;7.57;;;4.78;;
85160;SDS011;75526;43.726;4.346;2024-03-22T13:01:22;10.90;;;4.72;;
85160;SDS011;75526;43.726;4.346;2024-03-22T13:03:48;11.50;;;5.10;;
85160;SDS011;75526;43.726;4.346;2024-03-22T13:06:14;10.85;;;4.90;;
85160;SDS011;75526;43.726;4.346;2024-03-22T13:08:40;10.15;;;4.90;;
85160;SDS011;75526;43.726;4.346;2024-03-22T13:11:06;9.75;;;4.70;;
85160;SDS011;75526;43.726;4.346;2024-03-22T13:13:34;9.20;;;5.03;;
85160;SDS011;75526;43.726;4.346;2024-03-22T13:16:00;8.87;;;4.67;;
85160;SDS011;75526;43.726;4.346;2024-03-22T13:18:27;9.40;;;4.78;;
85160;SDS011;75526;43.726;4.346;2024-03-22T13:20:53;8.38;;;4.07;;
85160;SDS011;75526;43.726;4.346;2024-03-22T13:23:20;10.40;;;4.78;;
85160;SDS011;75526;43.726;4.346;2024-03-22T13:25:46;7.82;;;4.40;;
85160;SDS011;75526;43.726;4.346;2024-03-22T13:28:12;8.10;;;4.53;;
85160;SDS011;75526;43.726;4.346;2024-03-22T13:30:38;8.05;;;4.35;;
85160;SDS011;75526;43.726;4.346;2024-03-22T13:33:05;8.02;;;4.10;;
85160;SDS011;75526;43.726;4.346;2024-03-22T13:35:33;9.25;;;4.43;;
85160;SDS011;75526;43.726;4.346;2024-03-22T13:37:59;8.35;;;4.53;;
85160;SDS011;75526;43.726;4.346;2024-03-22T13:40:25;9.37;;;4.53;;
85160;SDS011;75526;43.726;4.346;2024-03-22T13:42:54;9.68;;;5.10;;
85160;SDS011;75526;43.726;4.346;2024-03-22T13:45:20;8.57;;;4.78;;
85160;SDS011;75526;43.726;4.346;2024-03-22T13:47:47;9.88;;;4.95;;
85160;SDS011;75526;43.726;4.346;2024-03-22T13:50:13;10.27;;;4.38;;
85160;SDS011;75526;43.726;4.346;2024-03-22T13:52:39;7.87;;;4.07;;
85160;SDS011;75526;43.726;4.346;2024-03-22T13:55:05;9.38;;;4.43;;
85160;SDS011;75526;43.726;4.346;2024-03-22T13:57:31;8.27;;;3.70;;
85160;SDS011;75526;43.726;4.346;2024-03-22T13:59:58;8.85;;;4.15;;
85160;SDS011;75526;43.726;4.346;2024-03-22T14:02:24;10.65;;;4.80;;
85160;SDS011;75526;43.726;4.346;2024-03-22T14:04:50;8.70;;;4.50;;
85160;SDS011;75526;43.726;4.346;2024-03-22T14:07:17;8.63;;;4.97;;
85160;SDS011;75526;43.726;4.346;2024-03-22T14:09:43;10.15;;;4.80;;
85160;SDS011;75526;43.726;4.346;2024-03-22T14:12:10;10.10;;;5.43;;
85160;SDS011;75526;43.726;4.346;2024-03-22T14:14:36;9.75;;;5.47;;
85160;SDS011;75526;43.726;4.346;2024-03-22T14:17:02;10.77;;;5.30;;
85160;SDS011;75526;43.726;4.346;2024-03-22T14:19:28;10.43;;;5.78;;
85160;SDS011;75526;43.726;4.346;2024-03-22T14:21:54;12.35;;;5.78;;
85160;SDS011;75526;43.726;4.346;2024-03-22T14:24:20;8.88;;;5.07;;
85160;SDS011;75526;43.726;4.346;2024-03-22T14:26:46;10.73;;;5.10;;
85160;SDS011;75526;43.726;4.346;2024-03-22T14:29:12;12.47;;;5.23;;
85160;SDS011;75526;43.726;4.346;2024-03-22T14:31:39;9.50;;;4.97;;
85160;SDS011;75526;43.726;4.346;2024-03-22T14:34:08;10.63;;;5.30;;
85160;SDS011;75526;43.726;4.346;2024-03-22T14:36:34;9.55;;;5.45;;
85160;SDS011;75526;43.726;4.346;2024-03-22T14:39:00;9.55;;;5.78;;
85160;SDS011;75526;43.726;4.346;2024-03-22T14:41:31;9.60;;;5.57;;
85160;SDS011;75526;43.726;4.346;2024-03-22T14:43:57;10.57;;;6.50;;
85160;SDS011;75526;43.726;4.346;2024-03-22T14:46:23;13.35;;;6.10;;